»·PEaware :: N804GA KMRY-KWVI

N804GA :: KMRY-KWVI

FLIGHT INFORMATION

Flight Status: Arrived
Operator: Privately registered:
United States
More flights under this callsign
Pilot: Andy L. (28483)
Aircraft: GRUMMAN AERO AA5 CHEETAH TIGER
(AA5)
More flights by this aircraft type
Origin: KMRY Monterey Peninsula
United States
Destination: KWVI Watsonville Mun
United States
More flights between these airports :: More routes between these airports
Route: +MRY5 SHOEY SNS
File this flight plan on PilotEdge
Remarks: Request RNAV (GPS) RWY 2 starting at RISPE
Altitude:
(Current/Filed)
3,000ft
Speed:
(Current/Filed)
130kts
Departed: 08-Jul-20 08:35 PM
Arrived: 08-Jul-20 09:10 PM
Distance/Time
Traveled:
21nm/0:35
Distance/Time
To Go:
Arrived

Flight Plot

Page will automatically refresh every two minutes.

Flight plan parsing failed; only flown route is shown


Map Options




Map Legend


Flown Route
Filed Route
Departure Airport
Arrival Airport
Navaid (VOR, NDB)
Fix

Horizontal Profiles

Position Reports

Time Latitude Longitude Heading Altitude Ground
Speed
08-Jul-20 20:05 36.588483 -121.852882 22 169ft 0kts
08-Jul-20 20:06 36.588483 -121.852882 22 169ft 0kts
08-Jul-20 20:07 36.588483 -121.852882 22 169ft 0kts
08-Jul-20 20:08 36.588483 -121.852882 22 169ft 0kts
08-Jul-20 20:09 36.588483 -121.852882 22 169ft 0kts
08-Jul-20 20:10 36.588483 -121.852882 22 169ft 0kts
08-Jul-20 20:11 36.588483 -121.852882 22 169ft 0kts
08-Jul-20 20:12 36.588483 -121.852882 22 169ft 0kts
08-Jul-20 20:13 36.588483 -121.852882 22 169ft 0kts
08-Jul-20 20:14 36.588483 -121.852882 22 169ft 0kts
08-Jul-20 20:15 36.588483 -121.852882 22 169ft 0kts
08-Jul-20 20:16 36.588483 -121.852882 22 169ft 0kts
08-Jul-20 20:17 36.588483 -121.852882 22 169ft 0kts
08-Jul-20 20:18 36.588483 -121.852882 22 169ft 0kts
08-Jul-20 20:19 36.588483 -121.852882 22 169ft 0kts
08-Jul-20 20:20 36.588483 -121.852882 22 169ft 0kts
08-Jul-20 20:21 36.588483 -121.852882 22 169ft 0kts
08-Jul-20 20:22 36.588886 -121.852458 110 168ft 4kts
08-Jul-20 20:23 36.587627 -121.848735 111 181ft 16kts
08-Jul-20 20:24 36.585922 -121.844106 112 208ft 16kts
08-Jul-20 20:25 36.583832 -121.837920 113 245ft 20kts
08-Jul-20 20:26 36.582796 -121.835498 25 237ft 0kts
08-Jul-20 20:27 36.582796 -121.835498 25 237ft 0kts
08-Jul-20 20:28 36.582796 -121.835498 25 237ft 0kts
08-Jul-20 20:29 36.582796 -121.835498 25 237ft 0kts
08-Jul-20 20:30 36.582796 -121.835498 25 237ft 0kts
08-Jul-20 20:31 36.582796 -121.835498 25 237ft 0kts
08-Jul-20 20:32 36.582820 -121.834767 99 232ft 0kts
08-Jul-20 20:33 36.582819 -121.834762 99 232ft 0kts
08-Jul-20 20:34 36.583875 -121.835163 292 236ft 42kts
08-Jul-20 20:35 36.592589 -121.860655 295 786ft 83kts
08-Jul-20 20:36 36.608145 -121.881617 340 1487ft 87kts
08-Jul-20 20:37 36.632141 -121.889943 354 2129ft 93kts
08-Jul-20 20:38 36.656586 -121.896773 342 2810ft 90kts
08-Jul-20 20:39 36.680304 -121.907544 339 3432ft 90kts
08-Jul-20 20:40 36.704680 -121.915969 344 4011ft 92kts
08-Jul-20 20:41 36.721822 -121.936062 277 4540ft 95kts
08-Jul-20 20:42 36.726888 -121.968668 270 4915ft 110kts
08-Jul-20 20:43 36.729911 -122.010202 270 5011ft 131kts
08-Jul-20 20:44 36.732997 -122.056923 287 4981ft 136kts
08-Jul-20 20:45 36.740437 -122.104682 278 4903ft 138kts
08-Jul-20 20:46 36.725985 -122.137813 161 5100ft 130kts
08-Jul-20 20:47 36.707301 -122.098425 138 5007ft 137kts
08-Jul-20 20:48 36.680360 -122.063087 135 4938ft 136kts
08-Jul-20 20:49 36.653329 -122.030184 129 4894ft 142kts
08-Jul-20 20:50 36.628703 -121.993389 134 4924ft 137kts
08-Jul-20 20:51 36.602293 -121.958678 130 4876ft 141kts
08-Jul-20 20:52 36.575699 -121.924593 112 4921ft 137kts
08-Jul-20 20:53 36.599497 -121.891924 41 4510ft 133kts
08-Jul-20 20:54 36.629942 -121.865911 29 3419ft 130kts
08-Jul-20 20:55 36.657630 -121.846378 32 3045ft 97kts
08-Jul-20 20:56 36.679627 -121.827262 25 3126ft 96kts
08-Jul-20 20:57 36.700293 -121.843695 307 3106ft 95kts
08-Jul-20 20:58 36.713408 -121.872969 296 3002ft 97kts
08-Jul-20 20:59 36.728203 -121.901048 305 2972ft 97kts
08-Jul-20 21:00 36.742587 -121.929115 318 3069ft 100kts
08-Jul-20 21:01 36.766936 -121.920346 29 3097ft 98kts
08-Jul-20 21:02 36.790698 -121.904379 29 3079ft 98kts
08-Jul-20 21:03 36.812748 -121.886384 33 2740ft 92kts
08-Jul-20 21:04 36.834398 -121.869484 33 2326ft 90kts
08-Jul-20 21:05 36.856137 -121.852939 37 1747ft 91kts
08-Jul-20 21:06 36.877074 -121.836293 29 1303ft 90kts
08-Jul-20 21:07 36.898033 -121.819515 33 916ft 90kts
08-Jul-20 21:08 36.920093 -121.802882 32 406ft 91kts
08-Jul-20 21:09 36.933986 -121.791676 90 144ft 15kts
08-Jul-20 21:10 36.933758 -121.791109 117 144ft 0kts
08-Jul-20 21:11 36.936004 -121.789070 32 147ft 12kts
08-Jul-20 21:12 36.936445 -121.787904 189 145ft 8kts
08-Jul-20 21:13 36.934974 -121.787451 202 141ft 3kts
08-Jul-20 21:14 36.934911 -121.787696 265 142ft 0kts

Navigation Log

Ident Type
Flight plan parsing failed, navigation log unavailable